sensor_id;sensor_type;location;lat;lon;timestamp;P1;durP1;ratioP1;P2;durP2;ratioP2
11313;SDS011;5712;48.858;9.206;2022-09-09T00:02:24;3.47;;;1.70;;
11313;SDS011;5712;48.858;9.206;2022-09-09T00:04:57;3.87;;;2.03;;
11313;SDS011;5712;48.858;9.206;2022-09-09T00:07:32;5.10;;;2.43;;
11313;SDS011;5712;48.858;9.206;2022-09-09T00:10:13;3.33;;;2.13;;
11313;SDS011;5712;48.858;9.206;2022-09-09T00:12:47;5.67;;;2.40;;
11313;SDS011;5712;48.858;9.206;2022-09-09T00:15:22;3.33;;;2.00;;
11313;SDS011;5712;48.858;9.206;2022-09-09T00:17:52;4.83;;;2.20;;
11313;SDS011;5712;48.858;9.206;2022-09-09T00:20:27;4.97;;;2.50;;
11313;SDS011;5712;48.858;9.206;2022-09-09T00:23:00;3.97;;;2.10;;
11313;SDS011;5712;48.858;9.206;2022-09-09T00:25:37;3.57;;;2.27;;
11313;SDS011;5712;48.858;9.206;2022-09-09T00:28:13;4.73;;;2.03;;
11313;SDS011;5712;48.858;9.206;2022-09-09T00:30:44;4.27;;;2.03;;
11313;SDS011;5712;48.858;9.206;2022-09-09T00:33:13;5.73;;;2.43;;
11313;SDS011;5712;48.858;9.206;2022-09-09T00:35:44;3.27;;;1.80;;
11313;SDS011;5712;48.858;9.206;2022-09-09T00:38:15;3.30;;;1.93;;
11313;SDS011;5712;48.858;9.206;2022-09-09T00:40:46;3.60;;;1.87;;
11313;SDS011;5712;48.858;9.206;2022-09-09T00:43:22;3.53;;;1.67;;
11313;SDS011;5712;48.858;9.206;2022-09-09T00:45:56;3.57;;;2.03;;
11313;SDS011;5712;48.858;9.206;2022-09-09T00:48:45;2.33;;;1.70;;
11313;SDS011;5712;48.858;9.206;2022-09-09T00:51:17;1.90;;;1.40;;
11313;SDS011;5712;48.858;9.206;2022-09-09T00:53:58;4.30;;;1.60;;
11313;SDS011;5712;48.858;9.206;2022-09-09T00:56:36;3.53;;;1.67;;
11313;SDS011;5712;48.858;9.206;2022-09-09T00:59:11;5.63;;;1.80;;
11313;SDS011;5712;48.858;9.206;2022-09-09T01:01:50;2.27;;;1.67;;
11313;SDS011;5712;48.858;9.206;2022-09-09T01:04:21;2.80;;;1.60;;
11313;SDS011;5712;48.858;9.206;2022-09-09T01:06:57;3.20;;;1.50;;
11313;SDS011;5712;48.858;9.206;2022-09-09T01:09:37;4.07;;;1.80;;
11313;SDS011;5712;48.858;9.206;2022-09-09T01:12:12;3.17;;;1.60;;
11313;SDS011;5712;48.858;9.206;2022-09-09T01:14:42;3.27;;;1.80;;
11313;SDS011;5712;48.858;9.206;2022-09-09T01:17:14;3.80;;;1.50;;
11313;SDS011;5712;48.858;9.206;2022-09-09T01:20:02;2.50;;;1.50;;
11313;SDS011;5712;48.858;9.206;2022-09-09T01:22:37;1.97;;;1.27;;
11313;SDS011;5712;48.858;9.206;2022-09-09T01:27:59;1.93;;;1.40;;
11313;SDS011;5712;48.858;9.206;2022-09-09T01:30:29;2.13;;;1.43;;
11313;SDS011;5712;48.858;9.206;2022-09-09T01:32:58;1.43;;;1.30;;
11313;SDS011;5712;48.858;9.206;2022-09-09T01:35:32;3.97;;;1.33;;
11313;SDS011;5712;48.858;9.206;2022-09-09T01:38:05;4.50;;;1.60;;
11313;SDS011;5712;48.858;9.206;2022-09-09T01:40:32;3.10;;;1.53;;
11313;SDS011;5712;48.858;9.206;2022-09-09T01:43:01;2.57;;;1.47;;
11313;SDS011;5712;48.858;9.206;2022-09-09T01:45:28;4.20;;;1.70;;
11313;SDS011;5712;48.858;9.206;2022-09-09T01:47:56;2.73;;;1.50;;
11313;SDS011;5712;48.858;9.206;2022-09-09T01:50:24;2.67;;;1.50;;
11313;SDS011;5712;48.858;9.206;2022-09-09T01:52:52;4.03;;;2.00;;
11313;SDS011;5712;48.858;9.206;2022-09-09T01:55:23;2.47;;;1.47;;
11313;SDS011;5712;48.858;9.206;2022-09-09T01:57:57;2.90;;;1.67;;
11313;SDS011;5712;48.858;9.206;2022-09-09T02:00:37;2.07;;;1.40;;
11313;SDS011;5712;48.858;9.206;2022-09-09T02:03:11;2.90;;;1.53;;
11313;SDS011;5712;48.858;9.206;2022-09-09T02:05:48;2.87;;;1.57;;
11313;SDS011;5712;48.858;9.206;2022-09-09T02:08:24;3.03;;;1.60;;
11313;SDS011;5712;48.858;9.206;2022-09-09T02:10:56;2.57;;;1.23;;
11313;SDS011;5712;48.858;9.206;2022-09-09T02:13:29;2.80;;;1.63;;
11313;SDS011;5712;48.858;9.206;2022-09-09T02:16:00;3.10;;;1.30;;
11313;SDS011;5712;48.858;9.206;2022-09-09T02:18:34;3.47;;;1.50;;
11313;SDS011;5712;48.858;9.206;2022-09-09T02:21:04;1.50;;;1.40;;
11313;SDS011;5712;48.858;9.206;2022-09-09T02:23:32;3.80;;;1.53;;
11313;SDS011;5712;48.858;9.206;2022-09-09T02:26:00;3.20;;;1.60;;
11313;SDS011;5712;48.858;9.206;2022-09-09T02:28:30;1.93;;;1.40;;
11313;SDS011;5712;48.858;9.206;2022-09-09T02:30:59;2.27;;;1.50;;
11313;SDS011;5712;48.858;9.206;2022-09-09T02:33:27;2.27;;;1.57;;
11313;SDS011;5712;48.858;9.206;2022-09-09T02:35:59;2.40;;;1.37;;
11313;SDS011;5712;48.858;9.206;2022-09-09T02:38:33;1.37;;;1.13;;
11313;SDS011;5712;48.858;9.206;2022-09-09T02:41:04;1.97;;;1.10;;
11313;SDS011;5712;48.858;9.206;2022-09-09T02:43:33;2.53;;;1.30;;
11313;SDS011;5712;48.858;9.206;2022-09-09T02:46:03;1.47;;;1.07;;
11313;SDS011;5712;48.858;9.206;2022-09-09T02:48:44;3.00;;;1.30;;
11313;SDS011;5712;48.858;9.206;2022-09-09T02:51:18;2.53;;;1.30;;
11313;SDS011;5712;48.858;9.206;2022-09-09T02:53:57;1.60;;;1.33;;
11313;SDS011;5712;48.858;9.206;2022-09-09T02:56:34;2.73;;;1.40;;
11313;SDS011;5712;48.858;9.206;2022-09-09T02:59:13;2.60;;;1.30;;
11313;SDS011;5712;48.858;9.206;2022-09-09T03:01:40;3.13;;;1.40;;
11313;SDS011;5712;48.858;9.206;2022-09-09T03:04:06;3.57;;;1.30;;
11313;SDS011;5712;48.858;9.206;2022-09-09T03:06:33;1.87;;;1.67;;
11313;SDS011;5712;48.858;9.206;2022-09-09T03:09:00;3.33;;;1.70;;
11313;SDS011;5712;48.858;9.206;2022-09-09T03:11:27;1.77;;;1.50;;
11313;SDS011;5712;48.858;9.206;2022-09-09T03:13:55;3.07;;;1.80;;
11313;SDS011;5712;48.858;9.206;2022-09-09T03:16:23;2.90;;;1.93;;
11313;SDS011;5712;48.858;9.206;2022-09-09T03:18:50;5.17;;;1.80;;
11313;SDS011;5712;48.858;9.206;2022-09-09T03:21:17;3.33;;;1.77;;
11313;SDS011;5712;48.858;9.206;2022-09-09T03:23:44;3.37;;;1.90;;
11313;SDS011;5712;48.858;9.206;2022-09-09T03:26:11;3.13;;;1.83;;
11313;SDS011;5712;48.858;9.206;2022-09-09T03:28:40;2.60;;;1.60;;
11313;SDS011;5712;48.858;9.206;2022-09-09T03:31:07;4.50;;;1.90;;
11313;SDS011;5712;48.858;9.206;2022-09-09T03:33:36;1.97;;;1.63;;
11313;SDS011;5712;48.858;9.206;2022-09-09T03:36:03;3.33;;;2.10;;
11313;SDS011;5712;48.858;9.206;2022-09-09T03:38:30;3.30;;;1.70;;
11313;SDS011;5712;48.858;9.206;2022-09-09T03:40:59;3.27;;;1.63;;
11313;SDS011;5712;48.858;9.206;2022-09-09T03:43:27;4.10;;;1.90;;
11313;SDS011;5712;48.858;9.206;2022-09-09T03:45:54;3.43;;;1.80;;
11313;SDS011;5712;48.858;9.206;2022-09-09T03:48:22;4.97;;;2.10;;
11313;SDS011;5712;48.858;9.206;2022-09-09T03:50:51;2.30;;;1.70;;
11313;SDS011;5712;48.858;9.206;2022-09-09T03:53:21;4.87;;;2.13;;
11313;SDS011;5712;48.858;9.206;2022-09-09T03:55:50;3.33;;;1.83;;
11313;SDS011;5712;48.858;9.206;2022-09-09T03:58:19;2.67;;;2.00;;
11313;SDS011;5712;48.858;9.206;2022-09-09T04:00:52;5.47;;;2.17;;
11313;SDS011;5712;48.858;9.206;2022-09-09T04:03:20;5.30;;;2.40;;
11313;SDS011;5712;48.858;9.206;2022-09-09T04:05:48;2.97;;;2.17;;
11313;SDS011;5712;48.858;9.206;2022-09-09T04:08:17;3.80;;;2.23;;
11313;SDS011;5712;48.858;9.206;2022-09-09T04:10:44;2.40;;;1.93;;
11313;SDS011;5712;48.858;9.206;2022-09-09T04:13:12;2.73;;;1.83;;
11313;SDS011;5712;48.858;9.206;2022-09-09T04:15:41;2.87;;;1.90;;
11313;SDS011;5712;48.858;9.206;2022-09-09T04:18:08;4.60;;;2.33;;
11313;SDS011;5712;48.858;9.206;2022-09-09T04:20:35;2.70;;;2.00;;
11313;SDS011;5712;48.858;9.206;2022-09-09T04:23:02;4.13;;;1.90;;
11313;SDS011;5712;48.858;9.206;2022-09-09T04:25:30;3.60;;;1.80;;
11313;SDS011;5712;48.858;9.206;2022-09-09T04:27:57;3.17;;;1.80;;
11313;SDS011;5712;48.858;9.206;2022-09-09T04:30:24;2.73;;;1.70;;
11313;SDS011;5712;48.858;9.206;2022-09-09T04:32:52;4.40;;;2.00;;
11313;SDS011;5712;48.858;9.206;2022-09-09T04:35:19;2.83;;;1.80;;
11313;SDS011;5712;48.858;9.206;2022-09-09T04:37:46;2.17;;;1.70;;
11313;SDS011;5712;48.858;9.206;2022-09-09T04:40:13;2.20;;;1.40;;
11313;SDS011;5712;48.858;9.206;2022-09-09T04:42:41;2.67;;;1.60;;
11313;SDS011;5712;48.858;9.206;2022-09-09T04:45:09;4.67;;;1.70;;
11313;SDS011;5712;48.858;9.206;2022-09-09T04:47:38;5.60;;;1.80;;
11313;SDS011;5712;48.858;9.206;2022-09-09T04:50:05;2.37;;;1.87;;
11313;SDS011;5712;48.858;9.206;2022-09-09T04:52:33;2.23;;;1.50;;
11313;SDS011;5712;48.858;9.206;2022-09-09T04:55:00;3.43;;;1.60;;
11313;SDS011;5712;48.858;9.206;2022-09-09T04:57:27;3.07;;;1.60;;
11313;SDS011;5712;48.858;9.206;2022-09-09T04:59:55;2.30;;;1.70;;
11313;SDS011;5712;48.858;9.206;2022-09-09T05:02:21;3.63;;;1.60;;
11313;SDS011;5712;48.858;9.206;2022-09-09T05:04:48;3.37;;;1.73;;
11313;SDS011;5712;48.858;9.206;2022-09-09T05:07:15;2.93;;;1.50;;
11313;SDS011;5712;48.858;9.206;2022-09-09T05:09:42;2.13;;;1.60;;
11313;SDS011;5712;48.858;9.206;2022-09-09T05:12:10;3.90;;;1.73;;
11313;SDS011;5712;48.858;9.206;2022-09-09T05:14:37;1.73;;;1.47;;
11313;SDS011;5712;48.858;9.206;2022-09-09T05:17:05;3.17;;;1.80;;
11313;SDS011;5712;48.858;9.206;2022-09-09T05:19:31;3.70;;;1.70;;
11313;SDS011;5712;48.858;9.206;2022-09-09T05:21:58;1.80;;;1.50;;
11313;SDS011;5712;48.858;9.206;2022-09-09T05:24:26;2.30;;;1.43;;
11313;SDS011;5712;48.858;9.206;2022-09-09T05:26:52;2.67;;;1.40;;
11313;SDS011;5712;48.858;9.206;2022-09-09T05:29:23;3.30;;;1.30;;
11313;SDS011;5712;48.858;9.206;2022-09-09T05:31:49;2.57;;;1.40;;
11313;SDS011;5712;48.858;9.206;2022-09-09T05:34:17;2.87;;;1.63;;
11313;SDS011;5712;48.858;9.206;2022-09-09T05:36:44;3.60;;;1.60;;
11313;SDS011;5712;48.858;9.206;2022-09-09T05:39:12;2.47;;;1.53;;
11313;SDS011;5712;48.858;9.206;2022-09-09T05:41:38;2.17;;;1.50;;
11313;SDS011;5712;48.858;9.206;2022-09-09T05:44:05;3.30;;;1.80;;
11313;SDS011;5712;48.858;9.206;2022-09-09T05:46:31;1.53;;;1.37;;
11313;SDS011;5712;48.858;9.206;2022-09-09T05:48:58;3.50;;;1.40;;
11313;SDS011;5712;48.858;9.206;2022-09-09T05:51:27;3.17;;;1.50;;
11313;SDS011;5712;48.858;9.206;2022-09-09T05:53:55;2.33;;;1.37;;
11313;SDS011;5712;48.858;9.206;2022-09-09T05:56:24;4.33;;;1.70;;
11313;SDS011;5712;48.858;9.206;2022-09-09T05:58:52;2.10;;;1.50;;
11313;SDS011;5712;48.858;9.206;2022-09-09T06:01:20;2.73;;;1.30;;
11313;SDS011;5712;48.858;9.206;2022-09-09T06:03:48;4.77;;;1.60;;
11313;SDS011;5712;48.858;9.206;2022-09-09T06:06:17;2.37;;;1.30;;
11313;SDS011;5712;48.858;9.206;2022-09-09T06:08:48;1.63;;;1.40;;
11313;SDS011;5712;48.858;9.206;2022-09-09T06:11:17;3.63;;;1.43;;
11313;SDS011;5712;48.858;9.206;2022-09-09T06:13:45;3.00;;;1.30;;
11313;SDS011;5712;48.858;9.206;2022-09-09T06:16:15;3.37;;;1.57;;
11313;SDS011;5712;48.858;9.206;2022-09-09T06:18:42;3.50;;;1.80;;
11313;SDS011;5712;48.858;9.206;2022-09-09T06:21:11;3.73;;;1.70;;
11313;SDS011;5712;48.858;9.206;2022-09-09T06:23:41;1.83;;;1.40;;
11313;SDS011;5712;48.858;9.206;2022-09-09T06:26:11;2.17;;;1.43;;
11313;SDS011;5712;48.858;9.206;2022-09-09T06:28:40;2.53;;;1.47;;
11313;SDS011;5712;48.858;9.206;2022-09-09T06:31:08;2.93;;;1.53;;
11313;SDS011;5712;48.858;9.206;2022-09-09T06:33:37;1.67;;;1.33;;
11313;SDS011;5712;48.858;9.206;2022-09-09T06:36:06;2.70;;;1.60;;
11313;SDS011;5712;48.858;9.206;2022-09-09T06:38:34;2.93;;;1.60;;
11313;SDS011;5712;48.858;9.206;2022-09-09T06:41:01;3.17;;;1.47;;
11313;SDS011;5712;48.858;9.206;2022-09-09T06:43:29;2.27;;;1.30;;
11313;SDS011;5712;48.858;9.206;2022-09-09T06:45:56;3.00;;;1.60;;
11313;SDS011;5712;48.858;9.206;2022-09-09T06:48:24;2.23;;;1.43;;
11313;SDS011;5712;48.858;9.206;2022-09-09T06:50:59;2.33;;;1.33;;
11313;SDS011;5712;48.858;9.206;2022-09-09T06:53:27;2.17;;;1.20;;
11313;SDS011;5712;48.858;9.206;2022-09-09T06:55:54;2.77;;;1.63;;
11313;SDS011;5712;48.858;9.206;2022-09-09T06:58:21;3.60;;;1.67;;
11313;SDS011;5712;48.858;9.206;2022-09-09T07:00:49;4.50;;;1.67;;
11313;SDS011;5712;48.858;9.206;2022-09-09T07:03:16;3.60;;;1.60;;
11313;SDS011;5712;48.858;9.206;2022-09-09T07:05:42;2.40;;;1.33;;
11313;SDS011;5712;48.858;9.206;2022-09-09T07:08:10;1.93;;;1.33;;
11313;SDS011;5712;48.858;9.206;2022-09-09T07:10:37;2.50;;;1.20;;
11313;SDS011;5712;48.858;9.206;2022-09-09T07:13:03;3.90;;;1.50;;
11313;SDS011;5712;48.858;9.206;2022-09-09T07:15:30;4.30;;;1.50;;
11313;SDS011;5712;48.858;9.206;2022-09-09T07:18:01;1.47;;;1.23;;
11313;SDS011;5712;48.858;9.206;2022-09-09T07:20:28;2.10;;;1.10;;
11313;SDS011;5712;48.858;9.206;2022-09-09T07:22:55;1.40;;;1.20;;
11313;SDS011;5712;48.858;9.206;2022-09-09T07:25:23;2.63;;;1.33;;
11313;SDS011;5712;48.858;9.206;2022-09-09T07:27:51;3.73;;;1.37;;
11313;SDS011;5712;48.858;9.206;2022-09-09T07:30:22;2.67;;;1.47;;
11313;SDS011;5712;48.858;9.206;2022-09-09T07:32:50;2.20;;;1.27;;
11313;SDS011;5712;48.858;9.206;2022-09-09T07:35:19;1.90;;;1.37;;
11313;SDS011;5712;48.858;9.206;2022-09-09T07:37:45;1.90;;;1.50;;
11313;SDS011;5712;48.858;9.206;2022-09-09T07:40:12;2.23;;;1.50;;
11313;SDS011;5712;48.858;9.206;2022-09-09T07:42:39;1.70;;;1.40;;
11313;SDS011;5712;48.858;9.206;2022-09-09T07:45:05;2.87;;;1.33;;
11313;SDS011;5712;48.858;9.206;2022-09-09T07:47:32;3.47;;;1.40;;
11313;SDS011;5712;48.858;9.206;2022-09-09T07:49:59;4.20;;;1.40;;
11313;SDS011;5712;48.858;9.206;2022-09-09T07:52:28;2.90;;;1.33;;
11313;SDS011;5712;48.858;9.206;2022-09-09T07:54:54;1.90;;;1.23;;
11313;SDS011;5712;48.858;9.206;2022-09-09T07:57:22;2.00;;;1.60;;
11313;SDS011;5712;48.858;9.206;2022-09-09T07:59:48;2.20;;;1.40;;
11313;SDS011;5712;48.858;9.206;2022-09-09T08:02:15;1.83;;;1.43;;
11313;SDS011;5712;48.858;9.206;2022-09-09T08:04:42;3.17;;;1.40;;
11313;SDS011;5712;48.858;9.206;2022-09-09T08:07:09;3.77;;;1.47;;
11313;SDS011;5712;48.858;9.206;2022-09-09T08:09:37;3.20;;;1.20;;
11313;SDS011;5712;48.858;9.206;2022-09-09T08:12:03;4.43;;;1.37;;
11313;SDS011;5712;48.858;9.206;2022-09-09T08:14:34;2.90;;;1.23;;
11313;SDS011;5712;48.858;9.206;2022-09-09T08:17:00;1.73;;;1.07;;
11313;SDS011;5712;48.858;9.206;2022-09-09T08:19:27;5.20;;;1.43;;
11313;SDS011;5712;48.858;9.206;2022-09-09T08:21:55;3.50;;;1.47;;
11313;SDS011;5712;48.858;9.206;2022-09-09T08:24:21;4.53;;;1.50;;
11313;SDS011;5712;48.858;9.206;2022-09-09T08:26:49;2.80;;;1.10;;
11313;SDS011;5712;48.858;9.206;2022-09-09T08:29:16;2.20;;;1.17;;
11313;SDS011;5712;48.858;9.206;2022-09-09T08:31:44;5.30;;;1.57;;
11313;SDS011;5712;48.858;9.206;2022-09-09T08:34:13;2.80;;;1.17;;
11313;SDS011;5712;48.858;9.206;2022-09-09T08:36:40;5.00;;;1.00;;
11313;SDS011;5712;48.858;9.206;2022-09-09T08:39:08;0.87;;;0.80;;
11313;SDS011;5712;48.858;9.206;2022-09-09T08:41:46;2.47;;;1.00;;
11313;SDS011;5712;48.858;9.206;2022-09-09T08:44:28;2.77;;;1.23;;
11313;SDS011;5712;48.858;9.206;2022-09-09T08:47:05;1.97;;;1.00;;
11313;SDS011;5712;48.858;9.206;2022-09-09T08:49:44;1.90;;;0.90;;
11313;SDS011;5712;48.858;9.206;2022-09-09T08:52:27;2.13;;;1.00;;
11313;SDS011;5712;48.858;9.206;2022-09-09T08:54:56;3.03;;;1.03;;
11313;SDS011;5712;48.858;9.206;2022-09-09T08:57:30;2.17;;;0.90;;
11313;SDS011;5712;48.858;9.206;2022-09-09T09:00:00;1.73;;;0.90;;
11313;SDS011;5712;48.858;9.206;2022-09-09T09:02:28;2.47;;;0.90;;
11313;SDS011;5712;48.858;9.206;2022-09-09T09:05:09;3.93;;;1.00;;
11313;SDS011;5712;48.858;9.206;2022-09-09T09:07:49;2.60;;;0.80;;
11313;SDS011;5712;48.858;9.206;2022-09-09T09:10:29;1.27;;;0.80;;
11313;SDS011;5712;48.858;9.206;2022-09-09T09:13:08;1.93;;;0.93;;
11313;SDS011;5712;48.858;9.206;2022-09-09T09:15:40;1.10;;;0.80;;
11313;SDS011;5712;48.858;9.206;2022-09-09T09:18:10;1.60;;;0.80;;
11313;SDS011;5712;48.858;9.206;2022-09-09T09:20:44;2.90;;;1.00;;
11313;SDS011;5712;48.858;9.206;2022-09-09T09:23:19;1.40;;;0.90;;
11313;SDS011;5712;48.858;9.206;2022-09-09T09:25:48;1.90;;;0.83;;
11313;SDS011;5712;48.858;9.206;2022-09-09T09:28:20;1.40;;;0.70;;
11313;SDS011;5712;48.858;9.206;2022-09-09T09:30:51;2.43;;;1.00;;
11313;SDS011;5712;48.858;9.206;2022-09-09T09:33:24;1.30;;;0.80;;
11313;SDS011;5712;48.858;9.206;2022-09-09T09:35:55;0.80;;;0.70;;
11313;SDS011;5712;48.858;9.206;2022-09-09T09:38:24;2.80;;;1.00;;
11313;SDS011;5712;48.858;9.206;2022-09-09T09:40:53;2.10;;;0.83;;
11313;SDS011;5712;48.858;9.206;2022-09-09T09:43:26;1.53;;;0.70;;
11313;SDS011;5712;48.858;9.206;2022-09-09T09:45:54;2.27;;;0.80;;
11313;SDS011;5712;48.858;9.206;2022-09-09T09:48:23;4.00;;;1.20;;
11313;SDS011;5712;48.858;9.206;2022-09-09T09:50:51;2.90;;;1.00;;
11313;SDS011;5712;48.858;9.206;2022-09-09T09:53:20;2.30;;;0.80;;
11313;SDS011;5712;48.858;9.206;2022-09-09T09:55:51;1.93;;;0.60;;
11313;SDS011;5712;48.858;9.206;2022-09-09T09:58:21;1.00;;;0.60;;
11313;SDS011;5712;48.858;9.206;2022-09-09T10:00:50;1.40;;;0.70;;
11313;SDS011;5712;48.858;9.206;2022-09-09T10:03:20;1.43;;;0.73;;
11313;SDS011;5712;48.858;9.206;2022-09-09T10:05:49;1.63;;;0.60;;
11313;SDS011;5712;48.858;9.206;2022-09-09T10:08:16;1.47;;;0.80;;
11313;SDS011;5712;48.858;9.206;2022-09-09T10:10:49;1.07;;;0.60;;
11313;SDS011;5712;48.858;9.206;2022-09-09T10:13:28;1.30;;;0.60;;
11313;SDS011;5712;48.858;9.206;2022-09-09T10:16:06;2.10;;;0.77;;
11313;SDS011;5712;48.858;9.206;2022-09-09T10:18:45;1.13;;;0.70;;
11313;SDS011;5712;48.858;9.206;2022-09-09T10:21:27;1.00;;;0.60;;
11313;SDS011;5712;48.858;9.206;2022-09-09T10:24:12;1.40;;;0.60;;
11313;SDS011;5712;48.858;9.206;2022-09-09T10:26:53;1.83;;;0.80;;
11313;SDS011;5712;48.858;9.206;2022-09-09T10:29:34;1.73;;;0.70;;
11313;SDS011;5712;48.858;9.206;2022-09-09T10:32:35;2.23;;;0.83;;
11313;SDS011;5712;48.858;9.206;2022-09-09T10:35:04;1.60;;;0.70;;
11313;SDS011;5712;48.858;9.206;2022-09-09T10:37:41;1.17;;;0.70;;
11313;SDS011;5712;48.858;9.206;2022-09-09T10:40:22;3.50;;;0.80;;
11313;SDS011;5712;48.858;9.206;2022-09-09T10:42:59;1.37;;;0.83;;
11313;SDS011;5712;48.858;9.206;2022-09-09T10:45:37;2.03;;;0.70;;
11313;SDS011;5712;48.858;9.206;2022-09-09T10:51:09;1.53;;;0.90;;
11313;SDS011;5712;48.858;9.206;2022-09-09T10:53:51;2.87;;;0.70;;
11313;SDS011;5712;48.858;9.206;2022-09-09T10:56:27;0.93;;;0.80;;
11313;SDS011;5712;48.858;9.206;2022-09-09T10:58:55;1.63;;;0.80;;
11313;SDS011;5712;48.858;9.206;2022-09-09T11:01:28;3.60;;;0.90;;
11313;SDS011;5712;48.858;9.206;2022-09-09T11:04:01;2.70;;;0.80;;
11313;SDS011;5712;48.858;9.206;2022-09-09T11:06:34;1.40;;;0.80;;
11313;SDS011;5712;48.858;9.206;2022-09-09T11:09:05;1.10;;;0.70;;
11313;SDS011;5712;48.858;9.206;2022-09-09T11:11:43;3.93;;;1.20;;
11313;SDS011;5712;48.858;9.206;2022-09-09T11:14:17;3.83;;;1.27;;
11313;SDS011;5712;48.858;9.206;2022-09-09T11:16:48;1.67;;;0.70;;
11313;SDS011;5712;48.858;9.206;2022-09-09T11:19:21;1.50;;;0.90;;
11313;SDS011;5712;48.858;9.206;2022-09-09T11:21:53;2.10;;;0.90;;
11313;SDS011;5712;48.858;9.206;2022-09-09T11:24:23;3.93;;;1.20;;
11313;SDS011;5712;48.858;9.206;2022-09-09T11:26:55;9.87;;;1.57;;
11313;SDS011;5712;48.858;9.206;2022-09-09T11:33:03;2.17;;;1.07;;
11313;SDS011;5712;48.858;9.206;2022-09-09T11:35:50;3.80;;;1.13;;
11313;SDS011;5712;48.858;9.206;2022-09-09T11:38:26;4.73;;;1.10;;
11313;SDS011;5712;48.858;9.206;2022-09-09T11:40:54;2.97;;;1.00;;
11313;SDS011;5712;48.858;9.206;2022-09-09T11:43:25;0.80;;;0.80;;
11313;SDS011;5712;48.858;9.206;2022-09-09T11:45:57;1.20;;;0.90;;
11313;SDS011;5712;48.858;9.206;2022-09-09T11:48:29;1.10;;;0.60;;
11313;SDS011;5712;48.858;9.206;2022-09-09T11:51:02;1.23;;;0.60;;
11313;SDS011;5712;48.858;9.206;2022-09-09T11:53:32;1.53;;;0.57;;
11313;SDS011;5712;48.858;9.206;2022-09-09T11:56:07;0.90;;;0.60;;
11313;SDS011;5712;48.858;9.206;2022-09-09T11:58:38;1.33;;;0.60;;
11313;SDS011;5712;48.858;9.206;2022-09-09T12:06:59;2.33;;;0.53;;
11313;SDS011;5712;48.858;9.206;2022-09-09T12:09:30;0.77;;;0.50;;
11313;SDS011;5712;48.858;9.206;2022-09-09T12:12:20;2.47;;;0.70;;
11313;SDS011;5712;48.858;9.206;2022-09-09T12:15:03;1.03;;;0.50;;
11313;SDS011;5712;48.858;9.206;2022-09-09T12:17:46;1.20;;;0.50;;
11313;SDS011;5712;48.858;9.206;2022-09-09T12:20:16;1.33;;;0.50;;
11313;SDS011;5712;48.858;9.206;2022-09-09T12:22:49;0.90;;;0.40;;
11313;SDS011;5712;48.858;9.206;2022-09-09T12:25:26;0.70;;;0.50;;
11313;SDS011;5712;48.858;9.206;2022-09-09T12:28:05;1.50;;;0.60;;
11313;SDS011;5712;48.858;9.206;2022-09-09T12:30:37;2.73;;;1.00;;
11313;SDS011;5712;48.858;9.206;2022-09-09T12:33:11;1.57;;;0.60;;
11313;SDS011;5712;48.858;9.206;2022-09-09T12:35:39;1.17;;;0.53;;
11313;SDS011;5712;48.858;9.206;2022-09-09T12:38:12;1.23;;;0.50;;
11313;SDS011;5712;48.858;9.206;2022-09-09T12:40:41;1.83;;;0.50;;
11313;SDS011;5712;48.858;9.206;2022-09-09T12:43:17;1.10;;;0.50;;
11313;SDS011;5712;48.858;9.206;2022-09-09T12:45:46;1.27;;;0.60;;
11313;SDS011;5712;48.858;9.206;2022-09-09T12:48:15;0.80;;;0.57;;
11313;SDS011;5712;48.858;9.206;2022-09-09T12:50:45;0.63;;;0.50;;
11313;SDS011;5712;48.858;9.206;2022-09-09T12:53:18;2.40;;;0.53;;
11313;SDS011;5712;48.858;9.206;2022-09-09T12:55:51;2.10;;;0.70;;
11313;SDS011;5712;48.858;9.206;2022-09-09T12:58:20;1.17;;;0.60;;
11313;SDS011;5712;48.858;9.206;2022-09-09T13:00:50;1.70;;;0.60;;
11313;SDS011;5712;48.858;9.206;2022-09-09T13:03:21;1.13;;;0.47;;
11313;SDS011;5712;48.858;9.206;2022-09-09T13:05:48;1.90;;;0.40;;
11313;SDS011;5712;48.858;9.206;2022-09-09T13:08:17;0.87;;;0.40;;
11313;SDS011;5712;48.858;9.206;2022-09-09T13:10:46;1.57;;;0.50;;
11313;SDS011;5712;48.858;9.206;2022-09-09T13:13:20;0.60;;;0.40;;
11313;SDS011;5712;48.858;9.206;2022-09-09T13:15:49;1.30;;;0.40;;
11313;SDS011;5712;48.858;9.206;2022-09-09T13:18:19;1.33;;;0.50;;
11313;SDS011;5712;48.858;9.206;2022-09-09T13:20:48;0.83;;;0.50;;
11313;SDS011;5712;48.858;9.206;2022-09-09T13:23:18;1.03;;;0.60;;
11313;SDS011;5712;48.858;9.206;2022-09-09T13:25:53;0.83;;;0.50;;
11313;SDS011;5712;48.858;9.206;2022-09-09T13:28:22;0.80;;;0.50;;
11313;SDS011;5712;48.858;9.206;2022-09-09T13:30:57;1.87;;;0.70;;
11313;SDS011;5712;48.858;9.206;2022-09-09T13:33:29;0.60;;;0.40;;
11313;SDS011;5712;48.858;9.206;2022-09-09T13:35:58;0.57;;;0.40;;
11313;SDS011;5712;48.858;9.206;2022-09-09T13:38:29;0.97;;;0.60;;
11313;SDS011;5712;48.858;9.206;2022-09-09T13:40:59;0.70;;;0.47;;
11313;SDS011;5712;48.858;9.206;2022-09-09T13:43:29;0.83;;;0.50;;
11313;SDS011;5712;48.858;9.206;2022-09-09T13:46:00;1.23;;;0.50;;
11313;SDS011;5712;48.858;9.206;2022-09-09T13:48:28;1.23;;;0.43;;
11313;SDS011;5712;48.858;9.206;2022-09-09T13:50:57;1.07;;;0.60;;
11313;SDS011;5712;48.858;9.206;2022-09-09T13:53:26;0.90;;;0.57;;
11313;SDS011;5712;48.858;9.206;2022-09-09T13:55:55;0.80;;;0.50;;
11313;SDS011;5712;48.858;9.206;2022-09-09T13:58:23;0.83;;;0.33;;
11313;SDS011;5712;48.858;9.206;2022-09-09T14:00:50;2.13;;;0.57;;
11313;SDS011;5712;48.858;9.206;2022-09-09T14:03:17;0.70;;;0.30;;
11313;SDS011;5712;48.858;9.206;2022-09-09T14:05:44;1.50;;;0.60;;
11313;SDS011;5712;48.858;9.206;2022-09-09T14:08:14;1.77;;;0.70;;
11313;SDS011;5712;48.858;9.206;2022-09-09T14:10:50;1.40;;;0.40;;
11313;SDS011;5712;48.858;9.206;2022-09-09T14:13:17;1.90;;;0.50;;
11313;SDS011;5712;48.858;9.206;2022-09-09T14:15:47;1.27;;;0.40;;
11313;SDS011;5712;48.858;9.206;2022-09-09T14:18:14;1.93;;;0.60;;
11313;SDS011;5712;48.858;9.206;2022-09-09T14:20:41;1.77;;;0.53;;
11313;SDS011;5712;48.858;9.206;2022-09-09T14:23:09;1.20;;;0.63;;
11313;SDS011;5712;48.858;9.206;2022-09-09T14:25:39;1.17;;;0.57;;
11313;SDS011;5712;48.858;9.206;2022-09-09T14:28:09;5.13;;;0.60;;
11313;SDS011;5712;48.858;9.206;2022-09-09T14:30:37;2.97;;;0.60;;
11313;SDS011;5712;48.858;9.206;2022-09-09T14:33:04;0.67;;;0.40;;
11313;SDS011;5712;48.858;9.206;2022-09-09T14:35:31;0.37;;;0.37;;
11313;SDS011;5712;48.858;9.206;2022-09-09T14:37:58;3.43;;;0.70;;
11313;SDS011;5712;48.858;9.206;2022-09-09T14:40:26;0.50;;;0.30;;
11313;SDS011;5712;48.858;9.206;2022-09-09T14:42:53;1.00;;;0.53;;
11313;SDS011;5712;48.858;9.206;2022-09-09T14:45:22;0.70;;;0.50;;
11313;SDS011;5712;48.858;9.206;2022-09-09T14:47:50;1.17;;;0.50;;
11313;SDS011;5712;48.858;9.206;2022-09-09T14:50:17;0.80;;;0.60;;
11313;SDS011;5712;48.858;9.206;2022-09-09T14:52:43;0.83;;;0.50;;
11313;SDS011;5712;48.858;9.206;2022-09-09T14:55:10;2.30;;;0.40;;
11313;SDS011;5712;48.858;9.206;2022-09-09T14:57:37;1.13;;;0.40;;
11313;SDS011;5712;48.858;9.206;2022-09-09T15:00:06;0.67;;;0.50;;
11313;SDS011;5712;48.858;9.206;2022-09-09T15:02:35;1.87;;;0.50;;
11313;SDS011;5712;48.858;9.206;2022-09-09T15:05:02;1.60;;;0.53;;
11313;SDS011;5712;48.858;9.206;2022-09-09T15:07:29;1.70;;;0.50;;
11313;SDS011;5712;48.858;9.206;2022-09-09T15:09:57;1.63;;;0.50;;
11313;SDS011;5712;48.858;9.206;2022-09-09T15:12:24;2.10;;;0.60;;
11313;SDS011;5712;48.858;9.206;2022-09-09T15:14:50;1.47;;;0.70;;
11313;SDS011;5712;48.858;9.206;2022-09-09T15:17:18;1.60;;;0.50;;
11313;SDS011;5712;48.858;9.206;2022-09-09T15:19:46;0.90;;;0.40;;
11313;SDS011;5712;48.858;9.206;2022-09-09T15:22:15;0.97;;;0.40;;
11313;SDS011;5712;48.858;9.206;2022-09-09T15:24:41;1.43;;;0.40;;
11313;SDS011;5712;48.858;9.206;2022-09-09T15:27:08;0.60;;;0.40;;
11313;SDS011;5712;48.858;9.206;2022-09-09T15:29:35;1.60;;;0.50;;
11313;SDS011;5712;48.858;9.206;2022-09-09T15:32:04;1.43;;;0.50;;
11313;SDS011;5712;48.858;9.206;2022-09-09T15:34:30;1.17;;;0.40;;
11313;SDS011;5712;48.858;9.206;2022-09-09T15:36:59;1.70;;;0.50;;